Time;durP1;ratioP1;P1;durP2;ratioP2;P2;SDS_P1;SDS_P2;PMS_P1;PMS_P2;Temp;Humidity;BMP_temperature;BMP_pressure;BME280_temperature;BME280_humidity;BME280_pressure;Samples;Min_cycle;Max_cycle;Signal;HPM_P1;HPM_P2
2022/02/15 00:01:19;;;;;;;;;3.50;3.00;;;;;9.16;69.43;100848.06;5087946;27;45441;-63
2022/02/15 00:03:45;;;;;;;;;6.50;4.25;;;;;9.13;69.45;100850.88;5105409;27;45472;-62
2022/02/15 00:06:11;;;;;;;;;8.25;4.25;;;;;9.10;69.22;100849.25;5104045;27;45414;-63
2022/02/15 00:08:36;;;;;;;;;5.50;4.00;;;;;9.13;69.60;100850.88;5110424;27;45443;-63
2022/02/15 00:11:02;;;;;;;;;6.00;4.00;;;;;9.13;69.56;100858.75;5107549;27;45411;-62
2022/02/15 00:13:27;;;;;;;;;2.50;2.00;;;;;9.12;69.66;100860.53;5089717;27;45434;-61
2022/02/15 00:15:53;;;;;;;;;3.75;3.50;;;;;9.07;69.36;100849.38;5105844;27;45381;-63
2022/02/15 00:18:19;;;;;;;;;5.25;2.25;;;;;9.02;69.56;100859.31;5111234;27;46330;-64
2022/02/15 00:20:44;;;;;;;;;3.75;2.00;;;;;9.00;69.81;100852.41;5108432;27;45698;-67
2022/02/15 00:23:11;;;;;;;;;2.75;2.00;;;;;8.93;69.83;100858.00;5109849;27;45754;-65
2022/02/15 00:25:36;;;;;;;;;2.50;2.00;;;;;8.90;69.78;100852.03;5106814;27;45334;-67
2022/02/15 00:28:03;;;;;;;;;3.50;3.00;;;;;8.86;70.09;100861.84;5111439;27;45292;-66
2022/02/15 00:30:29;;;;;;;;;2.50;1.75;;;;;8.84;70.27;100865.47;5107952;27;45247;-66
2022/02/15 00:32:55;;;;;;;;;7.50;2.75;;;;;8.84;70.25;100862.84;5091452;27;45509;-60
2022/02/15 00:35:20;;;;;;;;;2.50;2.50;;;;;8.85;69.95;100867.19;5107707;27;45241;-61
2022/02/15 00:37:46;;;;;;;;;2.75;2.00;;;;;8.81;69.75;100871.72;5088731;27;47055;-63
2022/02/15 00:40:12;;;;;;;;;4.00;2.00;;;;;8.82;70.32;100864.69;5112135;27;45558;-62
2022/02/15 00:42:39;;;;;;;;;3.75;2.00;;;;;8.83;70.27;100876.91;5109572;27;45483;-59
2022/02/15 00:45:06;;;;;;;;;1.75;1.75;;;;;8.82;70.17;100883.94;5107583;27;45255;-63
2022/02/15 00:47:32;;;;;;;;;2.75;2.00;;;;;8.81;70.11;100890.13;5105587;27;45426;-61
2022/02/15 00:49:57;;;;;;;;;5.00;2.00;;;;;8.80;69.92;100884.94;5108219;27;45457;-62
2022/02/15 00:52:23;;;;;;;;;2.75;2.00;;;;;8.78;70.18;100886.81;5112524;27;45463;-60
2022/02/15 00:54:49;;;;;;;;;2.75;2.75;;;;;8.78;70.05;100892.06;5109799;27;45377;-63
2022/02/15 00:57:15;;;;;;;;;2.25;1.50;;;;;8.78;70.38;100897.31;5091571;27;46869;-60
2022/02/15 00:59:42;;;;;;;;;2.75;2.50;;;;;8.76;70.40;100900.00;5105953;27;45541;-61
2022/02/15 01:02:08;;;;;;;;;5.25;2.75;;;;;8.79;70.41;100899.00;5111989;27;45318;-65
2022/02/15 01:04:33;;;;;;;;;3.00;1.50;;;;;8.79;70.47;100899.00;5092873;27;45341;-61
2022/02/15 01:06:59;;;;;;;;;3.00;2.00;;;;;8.81;70.55;100907.66;5110409;27;46274;-62
2022/02/15 01:09:25;;;;;;;;;2.75;1.50;;;;;8.86;70.67;100903.03;5105400;27;45615;-61
2022/02/15 01:11:51;;;;;;;;;2.00;1.50;;;;;8.88;70.30;100901.19;5097618;27;45303;-60
2022/02/15 01:14:18;;;;;;;;;3.75;2.00;;;;;8.89;70.57;100911.59;5103721;27;45448;-61
2022/02/15 01:16:44;;;;;;;;;3.00;2.00;;;;;8.93;70.55;100914.94;5103415;27;45451;-63
2022/02/15 01:19:10;;;;;;;;;4.00;2.00;;;;;8.91;70.12;100908.91;5107392;27;45477;-61
2022/02/15 01:21:35;;;;;;;;;1.75;1.75;;;;;8.90;70.51;100918.56;5091023;27;45152;-60
2022/02/15 01:24:01;;;;;;;;;7.75;3.00;;;;;8.90;70.79;100917.72;5104612;27;45352;-67
2022/02/15 01:26:27;;;;;;;;;2.75;1.25;;;;;8.90;70.29;100922.97;5110953;27;45316;-65
2022/02/15 01:28:52;;;;;;;;;7.00;4.25;;;;;8.90;70.57;100926.44;5110248;27;45374;-63
2022/02/15 01:31:18;;;;;;;;;2.75;2.50;;;;;8.89;70.25;100926.53;5109204;27;45354;-64
2022/02/15 01:33:44;;;;;;;;;2.75;2.75;;;;;8.88;70.40;100928.28;5090212;27;45348;-62
2022/02/15 01:36:09;;;;;;;;;6.00;2.75;;;;;8.85;70.30;100928.47;5107180;27;45330;-63
2022/02/15 01:38:35;;;;;;;;;3.00;2.00;;;;;8.83;70.66;100929.44;5111057;27;45525;-61
2022/02/15 01:41:01;;;;;;;;;1.75;1.75;;;;;8.79;70.77;100934.00;5109916;27;45388;-63
2022/02/15 01:43:27;;;;;;;;;1.00;1.00;;;;;8.74;70.83;100937.78;5109369;27;45398;-64
2022/02/15 01:45:53;;;;;;;;;5.00;2.75;;;;;8.72;70.76;100937.84;5100907;27;46163;-60
2022/02/15 01:48:18;;;;;;;;;3.75;3.00;;;;;8.70;70.55;100941.50;5111107;27;45441;-60
2022/02/15 01:50:44;;;;;;;;;6.00;3.00;;;;;8.65;70.92;100934.66;5112190;27;45388;-63
2022/02/15 01:53:10;;;;;;;;;7.00;2.00;;;;;8.64;71.01;100932.13;5091059;27;45390;-63
2022/02/15 01:55:35;;;;;;;;;1.00;1.00;;;;;8.65;70.60;100949.56;5106022;27;46065;-63
2022/02/15 01:58:01;;;;;;;;;1.00;1.00;;;;;8.61;71.02;100951.50;5106997;27;45575;-64
2022/02/15 02:00:26;;;;;;;;;1.25;1.25;;;;;8.63;70.84;100954.06;5111435;27;45612;-64
2022/02/15 02:02:52;;;;;;;;;3.00;3.00;;;;;8.63;71.14;100967.19;5111557;27;45394;-64
2022/02/15 02:08:02;;;;;;;;;2.50;1.00;;;;;8.60;71.02;100969.94;5110337;27;45503;-63
2022/02/15 02:10:28;;;;;;;;;3.75;1.50;;;;;8.64;71.09;100974.97;5090089;27;45482;-64
2022/02/15 02:12:54;;;;;;;;;1.00;0.50;;;;;8.65;70.82;100974.06;5109903;27;45470;-63
2022/02/15 02:15:22;;;;;;;;;5.25;2.00;;;;;8.68;71.26;100979.16;5085268;27;46415;-64
2022/02/15 02:17:48;;;;;;;;;5.75;3.00;;;;;8.72;70.62;100973.78;5084163;27;45264;-64
2022/02/15 02:20:14;;;;;;;;;1.00;0.25;;;;;8.73;70.86;100983.34;5084372;27;45289;-63
2022/02/15 02:22:40;;;;;;;;;5.25;1.25;;;;;8.75;70.98;100981.50;5078397;27;45310;-64
2022/02/15 02:25:11;;;;;;;;;5.00;2.00;;;;;8.75;70.99;100979.72;5084855;27;45594;-63
2022/02/15 02:27:36;;;;;;;;;1.00;1.00;;;;;8.78;70.75;100984.00;5084392;27;45231;-63
2022/02/15 02:30:03;;;;;;;;;2.00;2.00;;;;;8.76;71.09;100984.03;5085948;27;45386;-64
2022/02/15 02:32:31;;;;;;;;;2.25;1.75;;;;;8.74;71.15;100990.28;5090812;27;45553;-63
2022/02/15 02:34:57;;;;;;;;;3.75;2.00;;;;;8.72;70.83;100990.38;5091108;27;45370;-64
2022/02/15 02:37:23;;;;;;;;;2.25;1.50;;;;;8.70;70.93;100986.97;5104408;27;45368;-64
2022/02/15 02:39:53;;;;;;;;;3.25;1.50;;;;;8.68;70.91;100996.69;5097166;27;45421;-64
2022/02/15 02:42:21;;;;;;;;;1.00;1.00;;;;;8.65;71.15;101002.94;5097156;27;45530;-63
2022/02/15 02:44:48;;;;;;;;;4.00;1.25;;;;;8.63;70.93;101004.78;5084028;28;45438;-63
2022/02/15 02:47:14;;;;;;;;;0.25;0.25;;;;;8.61;71.04;101001.41;5078861;27;45350;-64
2022/02/15 02:49:40;;;;;;;;;3.50;1.00;;;;;8.60;71.16;101001.44;5083983;28;45313;-64
2022/02/15 02:52:06;;;;;;;;;0.75;0.50;;;;;8.59;71.00;101007.63;5083760;28;45408;-64
2022/02/15 02:54:32;;;;;;;;;3.00;1.00;;;;;8.57;70.96;101014.72;5083476;28;45246;-63
2022/02/15 02:57:01;;;;;;;;;4.25;1.00;;;;;8.56;70.78;101013.88;5083530;27;45272;-63
2022/02/15 02:59:27;;;;;;;;;1.00;1.00;;;;;8.53;71.23;101008.78;5083798;27;45348;-63
2022/02/15 03:01:53;;;;;;;;;4.25;1.00;;;;;8.54;71.22;101017.50;5083533;28;45472;-63
2022/02/15 03:04:18;;;;;;;;;3.00;1.00;;;;;8.52;70.93;101021.97;5083653;27;46035;-63
2022/02/15 03:06:44;;;;;;;;;0.00;0.00;;;;;8.47;70.90;101024.81;5083569;27;45327;-64
2022/02/15 03:09:10;;;;;;;;;2.00;0.50;;;;;8.45;71.20;101029.25;5083470;28;45331;-64
2022/02/15 03:11:35;;;;;;;;;5.00;0.75;;;;;8.44;71.04;101039.84;5065358;28;45460;-63
2022/02/15 03:14:01;;;;;;;;;0.75;0.75;;;;;8.43;71.18;101041.59;5083102;27;46112;-64
2022/02/15 03:16:27;;;;;;;;;1.25;1.00;;;;;8.40;71.24;101044.38;5083452;27;45417;-64
2022/02/15 03:18:53;;;;;;;;;1.00;1.00;;;;;8.38;71.26;101059.38;5083569;28;45734;-63
2022/02/15 03:21:19;;;;;;;;;7.25;0.50;;;;;8.36;71.35;101062.03;5083413;27;45232;-64
2022/02/15 03:23:45;;;;;;;;;1.50;0.50;;;;;8.37;71.41;101057.63;5083116;27;45347;-63
2022/02/15 03:26:11;;;;;;;;;2.00;2.00;;;;;8.36;71.27;101054.16;5083165;28;45476;-63
2022/02/15 03:28:37;;;;;;;;;1.50;1.50;;;;;8.38;71.40;101073.34;5083502;27;45394;-63
2022/02/15 03:31:03;;;;;;;;;3.25;1.00;;;;;8.41;71.17;101071.47;5102915;27;45271;-64
2022/02/15 03:33:29;;;;;;;;;0.75;0.75;;;;;8.45;71.35;101081.75;5103539;27;46034;-63
2022/02/15 03:35:54;;;;;;;;;1.75;1.75;;;;;8.46;71.06;101078.25;5071283;27;45469;-63
2022/02/15 03:38:20;;;;;;;;;1.00;0.75;;;;;8.49;70.98;101093.00;5103567;27;45417;-63
2022/02/15 03:43:30;;;;;;;;;1.00;1.00;;;;;8.49;71.10;101093.84;5092891;27;45370;-64
2022/02/15 03:45:56;;;;;;;;;1.75;1.00;;;;;8.46;71.06;101091.38;5082826;27;45347;-64
2022/02/15 03:48:21;;;;;;;;;2.00;1.00;;;;;8.44;71.00;101108.09;5082749;28;45331;-64
2022/02/15 03:50:47;;;;;;;;;4.00;1.00;;;;;8.41;70.90;101103.84;5083024;28;45224;-64
2022/02/15 03:53:15;;;;;;;;;2.50;1.00;;;;;8.39;71.12;101111.78;5082499;28;45446;-63
2022/02/15 03:55:41;;;;;;;;;1.75;0.75;;;;;8.35;70.97;101104.94;5082620;28;45166;-64
2022/02/15 03:58:07;;;;;;;;;1.50;0.50;;;;;8.33;70.87;101122.50;5083147;28;45375;-63
2022/02/15 04:00:32;;;;;;;;;4.50;0.50;;;;;8.31;71.02;101126.13;5082762;27;45516;-64
2022/02/15 04:02:58;;;;;;;;;1.00;1.00;;;;;8.28;70.74;101121.84;5082701;28;45725;-64
2022/02/15 04:05:23;;;;;;;;;1.00;1.00;;;;;8.29;70.84;101131.44;5081717;27;45346;-63
2022/02/15 04:07:49;;;;;;;;;7.00;2.00;;;;;8.27;70.64;101132.41;5092681;27;45316;-64
2022/02/15 04:10:17;;;;;;;;;2.25;1.00;;;;;8.23;71.16;101131.72;5082671;27;45486;-64
2022/02/15 04:12:43;;;;;;;;;5.25;2.00;;;;;8.20;71.00;101139.69;5082271;28;45558;-63
2022/02/15 04:15:09;;;;;;;;;1.00;1.00;;;;;8.19;70.80;101139.78;5064442;27;45304;-63
2022/02/15 04:17:34;;;;;;;;;0.00;0.00;;;;;8.16;70.76;101153.88;5082600;28;45141;-63
2022/02/15 04:20:00;;;;;;;;;1.25;0.50;;;;;8.15;70.85;101157.44;5082256;27;45339;-63
2022/02/15 04:22:25;;;;;;;;;2.75;1.00;;;;;8.10;70.89;101159.38;5082424;27;46423;-63
2022/02/15 04:24:51;;;;;;;;;1.00;1.00;;;;;8.09;70.83;101157.69;5062998;28;45392;-64
2022/02/15 04:27:16;;;;;;;;;1.75;1.00;;;;;8.06;70.91;101163.94;5081417;28;45497;-64
2022/02/15 04:29:42;;;;;;;;;3.00;0.25;;;;;8.05;70.94;101183.19;5080442;27;45502;-64
2022/02/15 04:32:08;;;;;;;;;0.00;0.00;;;;;8.03;71.08;101185.03;5091998;27;45467;-63
2022/02/15 04:34:34;;;;;;;;;1.50;1.00;;;;;8.01;71.11;101194.75;5082008;27;45327;-62
2022/02/15 04:37:00;;;;;;;;;0.00;0.00;;;;;8.01;70.68;101192.13;5082321;28;45330;-61
2022/02/15 04:39:25;;;;;;;;;1.75;1.00;;;;;7.98;70.97;101197.50;5084682;27;45424;-62
2022/02/15 04:41:51;;;;;;;;;0.50;0.50;;;;;7.96;70.92;101187.97;5091973;27;46099;-61
2022/02/15 04:44:16;;;;;;;;;2.00;1.00;;;;;7.95;70.91;101197.59;5085346;27;45331;-61
2022/02/15 04:46:42;;;;;;;;;0.50;0.00;;;;;7.92;71.07;101199.50;5081919;28;45417;-61
2022/02/15 04:49:07;;;;;;;;;2.25;0.00;;;;;7.91;70.96;101195.19;5081886;27;45655;-61
2022/02/15 04:51:33;;;;;;;;;2.25;1.00;;;;;7.89;70.79;101200.47;5082009;28;45929;-61
2022/02/15 04:53:59;;;;;;;;;1.00;0.50;;;;;7.88;70.96;101206.63;5081371;27;45462;-61
2022/02/15 04:56:24;;;;;;;;;1.00;0.00;;;;;7.88;70.77;101211.03;5081964;28;45305;-61
2022/02/15 04:58:50;;;;;;;;;1.75;1.25;;;;;7.88;70.82;101206.63;5081770;28;45552;-61
2022/02/15 05:01:16;;;;;;;;;0.75;0.25;;;;;7.87;70.69;101217.19;5081567;27;45252;-61
2022/02/15 05:03:42;;;;;;;;;1.00;0.00;;;;;7.85;70.73;101222.50;5081633;27;45363;-61
2022/02/15 05:06:08;;;;;;;;;1.00;1.00;;;;;7.86;70.75;101220.75;5082153;28;45454;-61
2022/02/15 05:08:33;;;;;;;;;1.00;1.00;;;;;7.84;70.86;101226.06;5081423;28;45580;-62
2022/02/15 05:10:59;;;;;;;;;2.00;1.00;;;;;7.83;70.81;101235.69;5081654;28;45287;-62
2022/02/15 05:13:25;;;;;;;;;1.50;1.00;;;;;7.84;70.67;101226.91;5081263;28;45323;-62
2022/02/15 05:15:50;;;;;;;;;2.50;1.25;;;;;7.83;70.95;101230.44;5081796;28;46594;-62
2022/02/15 05:18:16;;;;;;;;;0.75;0.75;;;;;7.84;70.81;101229.53;5081629;28;45241;-62
2022/02/15 05:20:41;;;;;;;;;1.75;1.00;;;;;7.82;70.71;101233.13;5081370;28;46294;-62
2022/02/15 05:23:07;;;;;;;;;0.50;0.50;;;;;7.79;70.80;101236.72;5081114;28;45221;-62
2022/02/15 05:25:33;;;;;;;;;1.00;1.00;;;;;7.78;70.93;101235.00;5081625;28;45404;-62
2022/02/15 05:27:58;;;;;;;;;0.75;0.75;;;;;7.76;70.96;101230.75;5081697;28;45249;-62
2022/02/15 05:30:25;;;;;;;;;0.75;0.50;;;;;7.75;70.99;101226.44;5095806;27;45422;-62
2022/02/15 05:32:50;;;;;;;;;1.50;0.25;;;;;7.73;71.06;101231.72;5084888;27;45241;-62
2022/02/15 05:35:16;;;;;;;;;1.75;1.00;;;;;7.72;70.97;101231.78;5081498;28;45280;-62
2022/02/15 05:37:43;;;;;;;;;2.75;0.25;;;;;7.67;71.05;101233.75;5081201;28;45300;-60
2022/02/15 05:40:10;;;;;;;;;1.75;1.00;;;;;7.66;71.12;101245.13;5084167;27;45617;-62
2022/02/15 05:42:36;;;;;;;;;3.00;1.75;;;;;7.63;71.05;101240.00;5094320;27;45426;-62
2022/02/15 05:45:02;;;;;;;;;3.75;1.00;;;;;7.61;70.94;101232.19;5081290;28;45351;-62
2022/02/15 05:47:27;;;;;;;;;6.75;0.00;;;;;7.57;71.22;101239.31;5081143;28;45241;-62
2022/02/15 05:52:37;;;;;;;;;3.50;1.00;;;;;7.54;71.33;101234.19;5080675;27;45224;-61
2022/02/15 05:55:03;;;;;;;;;5.00;1.75;;;;;7.54;71.28;101233.34;5080990;28;45462;-62
2022/02/15 05:57:29;;;;;;;;;0.75;0.75;;;;;7.54;71.03;101233.34;5081001;28;45221;-61
2022/02/15 05:59:55;;;;;;;;;0.75;0.75;;;;;7.54;70.85;101236.81;5080976;27;45612;-62
2022/02/15 06:02:21;;;;;;;;;4.50;1.00;;;;;7.50;71.05;101235.25;5080765;28;45331;-61
2022/02/15 06:04:47;;;;;;;;;1.50;0.00;;;;;7.49;70.70;101244.00;5062829;28;45298;-61
2022/02/15 06:07:12;;;;;;;;;2.50;1.50;;;;;7.48;70.76;101244.06;5080821;28;45377;-61
2022/02/15 06:09:38;;;;;;;;;3.50;1.75;;;;;7.48;71.13;101251.94;5073723;27;47785;-62
2022/02/15 06:12:04;;;;;;;;;1.50;1.00;;;;;7.47;71.08;101250.22;5082783;27;45512;-62
2022/02/15 06:14:30;;;;;;;;;1.00;1.00;;;;;7.44;71.01;101252.97;5080763;28;45287;-62
2022/02/15 06:16:55;;;;;;;;;7.00;1.00;;;;;7.41;70.97;101253.91;5080699;27;45330;-62
2022/02/15 06:19:20;;;;;;;;;4.50;0.75;;;;;7.41;71.02;101266.19;5089736;27;45524;-61
2022/02/15 06:21:47;;;;;;;;;1.00;0.25;;;;;7.39;70.81;101274.09;5080706;28;45419;-61
2022/02/15 06:24:13;;;;;;;;;3.50;1.00;;;;;7.39;70.61;101268.88;5080458;28;45252;-62
2022/02/15 06:26:39;;;;;;;;;1.00;1.00;;;;;7.40;70.95;101272.34;5080548;28;45245;-62
2022/02/15 06:29:04;;;;;;;;;2.50;0.00;;;;;7.39;70.51;101266.25;5083811;27;46093;-61
2022/02/15 06:31:30;;;;;;;;;1.00;1.00;;;;;7.38;70.43;101263.69;5101234;27;45215;-61
2022/02/15 06:33:55;;;;;;;;;2.00;0.00;;;;;7.36;70.91;101273.38;5080746;27;45214;-61
2022/02/15 06:36:21;;;;;;;;;3.00;1.00;;;;;7.35;70.44;101277.78;5090751;27;45207;-62
2022/02/15 06:38:46;;;;;;;;;1.25;1.00;;;;;7.36;70.75;101289.97;5080977;27;45552;-65
2022/02/15 06:41:12;;;;;;;;;1.25;1.00;;;;;7.34;70.71;101286.50;5107159;27;45558;-61
2022/02/15 06:43:38;;;;;;;;;3.00;1.25;;;;;7.35;70.26;101292.63;5088909;27;45284;-61
2022/02/15 06:46:04;;;;;;;;;3.00;1.00;;;;;7.35;70.37;101292.63;5086042;27;45304;-61
2022/02/15 06:48:29;;;;;;;;;0.00;0.00;;;;;7.34;70.40;101291.75;5080682;27;46362;-62
2022/02/15 06:50:55;;;;;;;;;0.00;0.00;;;;;7.33;70.19;101300.53;5083626;27;45317;-61
2022/02/15 06:53:20;;;;;;;;;1.50;1.00;;;;;7.32;70.05;101298.81;5085810;27;45293;-66
2022/02/15 06:55:46;;;;;;;;;26.50;18.25;;;;;7.33;70.37;101305.78;5083930;27;45505;-67
2022/02/15 06:58:11;;;;;;;;;0.75;0.00;;;;;7.33;70.09;101305.78;5092380;27;45363;-66
2022/02/15 07:00:38;;;;;;;;;2.50;0.00;;;;;7.32;70.02;101305.84;5083238;27;45411;-65
2022/02/15 07:03:04;;;;;;;;;1.00;1.00;;;;;7.30;70.12;101313.75;5094997;27;45389;-67
2022/02/15 07:05:30;;;;;;;;;1.75;1.00;;;;;7.31;70.09;101325.09;5086896;27;45259;-68
2022/02/15 07:07:55;;;;;;;;;1.50;0.75;;;;;7.30;69.81;101324.25;5082928;28;45617;-67
2022/02/15 07:10:21;;;;;;;;;3.00;1.00;;;;;7.32;70.15;101326.81;5084588;27;45425;-67
2022/02/15 07:12:47;;;;;;;;;2.00;1.00;;;;;7.28;69.97;101319.06;5083269;28;45285;-71
2022/02/15 07:15:13;;;;;;;;;2.75;0.75;;;;;7.27;70.07;101324.38;5083358;27;45459;-70
2022/02/15 07:17:40;;;;;;;;;3.50;1.00;;;;;7.31;70.37;101325.09;5083090;28;46549;-71
2022/02/15 07:20:06;;;;;;;;;1.00;1.00;;;;;7.32;70.17;101326.81;5082952;28;45433;-70
2022/02/15 07:22:33;;;;;;;;;1.75;1.00;;;;;7.35;69.76;101337.19;5083113;28;45574;-70
2022/02/15 07:24:58;;;;;;;;;1.00;1.00;;;;;7.36;69.47;101345.00;5083157;27;45233;-72
2022/02/15 07:27:26;;;;;;;;;3.00;1.50;;;;;7.37;69.64;101332.75;5082785;27;45236;-70
2022/02/15 07:29:52;;;;;;;;;4.25;0.50;;;;;7.39;69.70;101337.00;5092628;27;45371;-71
2022/02/15 07:32:19;;;;;;;;;1.00;1.00;;;;;7.42;69.88;101342.13;5090704;27;45412;-72
2022/02/15 07:34:44;;;;;;;;;3.25;1.00;;;;;7.46;69.57;101345.50;5082143;27;45462;-72
2022/02/15 07:37:10;;;;;;;;;3.50;1.00;;;;;7.51;69.43;101340.97;5082347;27;46008;-71
2022/02/15 07:39:36;;;;;;;;;4.50;1.50;;;;;7.57;69.69;101343.31;5084696;27;45414;-72
2022/02/15 07:42:01;;;;;;;;;3.25;2.00;;;;;7.62;69.35;101344.03;5094624;27;45338;-72
2022/02/15 07:44:27;;;;;;;;;2.00;1.25;;;;;7.65;69.16;101346.53;5084236;27;45218;-73
2022/02/15 07:46:52;;;;;;;;;6.50;2.25;;;;;7.68;69.19;101353.44;5094706;27;45424;-72
2022/02/15 07:49:18;;;;;;;;;5.00;2.00;;;;;7.74;69.18;101354.06;5102946;27;45249;-72
2022/02/15 07:51:44;;;;;;;;;6.00;2.25;;;;;7.79;69.19;101354.72;5102873;27;45173;-64
2022/02/15 07:54:10;;;;;;;;;2.00;1.00;;;;;7.83;68.86;101358.09;5088602;27;45399;-66
2022/02/15 07:56:35;;;;;;;;;2.25;0.75;;;;;7.88;68.75;101361.38;5102541;27;45298;-65
2022/02/15 07:59:01;;;;;;;;;1.50;1.00;;;;;7.92;68.81;101365.63;5102356;27;45323;-62
2022/02/15 08:01:26;;;;;;;;;3.50;2.00;;;;;7.97;68.58;101368.91;5101213;27;45406;-63
2022/02/15 08:03:53;;;;;;;;;6.00;1.00;;;;;8.02;68.59;101366.13;5102574;27;45315;-68
2022/02/15 08:06:19;;;;;;;;;2.25;2.00;;;;;8.08;68.43;101364.13;5102391;27;45437;-67
2022/02/15 08:08:44;;;;;;;;;1.00;0.50;;;;;8.15;68.33;101377.00;5102146;27;45433;-64
2022/02/15 08:11:10;;;;;;;;;1.25;1.25;;;;;8.18;68.04;101374.25;5102646;27;45291;-67
2022/02/15 08:13:37;;;;;;;;;4.00;1.00;;;;;8.21;68.02;101388.09;5102708;27;45371;-64
2022/02/15 08:16:03;;;;;;;;;1.75;1.75;;;;;8.24;67.76;101388.00;5101995;27;45694;-61
2022/02/15 08:18:29;;;;;;;;;5.25;1.00;;;;;8.28;68.02;101391.34;5103908;27;45591;-65
2022/02/15 08:20:55;;;;;;;;;1.00;1.00;;;;;8.32;67.90;101393.78;5082255;27;45175;-66
2022/02/15 08:23:22;;;;;;;;;3.00;1.75;;;;;8.37;67.91;101391.00;5081591;27;45225;-70
2022/02/15 08:25:50;;;;;;;;;4.00;1.25;;;;;8.41;67.46;101387.34;5081554;27;46028;-65
2022/02/15 08:28:21;;;;;;;;;7.25;2.00;;;;;8.45;67.36;101394.19;5081942;28;45347;-63
2022/02/15 08:30:47;;;;;;;;;2.00;1.25;;;;;8.44;67.24;101389.84;5099358;27;45210;-63
2022/02/15 08:33:13;;;;;;;;;7.75;1.00;;;;;8.45;67.47;101401.19;5082249;27;46165;-64
2022/02/15 08:35:38;;;;;;;;;2.75;1.50;;;;;8.42;66.94;101406.59;5081558;27;45424;-63
2022/02/15 08:38:04;;;;;;;;;2.25;2.00;;;;;8.45;67.21;101409.94;5081229;28;45379;-64
2022/02/15 08:40:29;;;;;;;;;7.00;1.50;;;;;8.50;67.22;101417.63;5084570;27;45440;-64
2022/02/15 08:42:55;;;;;;;;;3.00;2.00;;;;;8.51;67.27;101417.56;5094961;27;45613;-64
2022/02/15 08:45:22;;;;;;;;;5.00;1.00;;;;;8.54;66.87;101421.88;5081396;28;45469;-63
2022/02/15 08:47:48;;;;;;;;;4.50;2.00;;;;;8.55;66.98;101413.06;5081179;27;45450;-67
2022/02/15 08:50:13;;;;;;;;;1.25;1.25;;;;;8.60;66.78;101414.56;5081653;28;45427;-65
2022/02/15 08:52:39;;;;;;;;;5.00;3.75;;;;;8.65;66.95;101415.25;5081589;28;45232;-65
2022/02/15 08:55:07;;;;;;;;;2.25;2.00;;;;;8.70;66.56;101403.72;5081588;28;46167;-67
2022/02/15 08:57:34;;;;;;;;;5.00;1.00;;;;;8.75;66.60;101399.13;5081458;28;45393;-66
2022/02/15 09:00:00;;;;;;;;;3.25;1.50;;;;;8.78;66.33;101406.88;5076758;27;45521;-64
2022/02/15 09:02:26;;;;;;;;;3.50;1.00;;;;;8.81;66.20;101412.00;5081402;27;45237;-66
2022/02/15 09:04:52;;;;;;;;;2.00;2.00;;;;;8.83;65.59;101408.38;5081153;28;45351;-67
2022/02/15 09:07:18;;;;;;;;;5.25;1.00;;;;;8.83;66.14;101395.25;5081270;28;45353;-68
2022/02/15 09:09:44;;;;;;;;;4.00;1.25;;;;;8.85;65.69;101387.31;5081622;28;45313;-68
2022/02/15 09:12:10;;;;;;;;;2.50;1.00;;;;;8.91;65.75;101379.16;5105736;27;45558;-65
2022/02/15 09:14:37;;;;;;;;;4.25;1.00;;;;;8.99;65.79;101377.06;5111882;27;46040;-68
2022/02/15 09:17:03;;;;;;;;;3.50;0.50;;;;;9.05;65.11;101381.22;5082394;27;45461;-73
2022/02/15 09:19:29;;;;;;;;;5.00;1.00;;;;;9.09;65.36;101385.44;5095380;27;45402;-74
2022/02/15 09:21:56;;;;;;;;;1.00;1.00;;;;;9.12;65.22;101388.78;5102065;27;45358;-75
2022/02/15 09:24:22;;;;;;;;;6.50;0.00;;;;;9.17;65.36;101384.19;5101387;27;45479;-75
2022/02/15 09:26:48;;;;;;;;;3.00;1.75;;;;;9.26;65.00;101379.44;5101575;27;45271;-69
2022/02/15 09:29:16;;;;;;;;;1.00;1.00;;;;;9.33;64.58;101384.38;5083733;27;45501;-70
2022/02/15 09:31:42;;;;;;;;;4.25;2.00;;;;;9.40;64.61;101396.34;5082107;28;45224;-75
2022/02/15 09:34:09;;;;;;;;;3.75;1.00;;;;;9.43;64.36;101384.81;5085299;27;46314;-64
2022/02/15 09:36:36;;;;;;;;;6.00;2.00;;;;;9.50;64.43;101389.75;5087849;27;45370;-63
2022/02/15 09:39:03;;;;;;;;;3.00;2.00;;;;;9.61;64.31;101388.41;5106105;27;46384;-68
2022/02/15 09:41:33;;;;;;;;;2.00;1.25;;;;;9.68;64.54;101389.84;5091983;27;45498;-69
2022/02/15 09:44:00;;;;;;;;;3.00;2.00;;;;;9.77;64.18;101397.31;5103051;27;45392;-70
2022/02/15 09:46:26;;;;;;;;;0.25;0.25;;;;;9.90;64.40;101387.09;5079951;28;45474;-68
2022/02/15 09:48:54;;;;;;;;;3.75;1.75;;;;;9.96;63.59;101395.56;5062715;28;45239;-68
2022/02/15 09:51:21;;;;;;;;;1.00;1.00;;;;;9.96;63.09;101395.56;5081082;28;45430;-68
2022/02/15 09:53:48;;;;;;;;;2.00;2.00;;;;;9.96;63.61;101385.03;5080400;28;46080;-68
2022/02/15 09:56:13;;;;;;;;;2.25;1.00;;;;;10.04;63.48;101382.03;5080880;28;45388;-69
2022/02/15 09:58:39;;;;;;;;;1.75;0.25;;;;;10.08;62.81;101388.84;5080812;27;45365;-69
2022/02/15 10:01:05;;;;;;;;;1.50;0.75;;;;;10.15;62.94;101389.44;5071164;27;45630;-69
2022/02/15 10:03:32;;;;;;;;;1.50;1.00;;;;;10.19;63.23;101381.34;5085100;27;45406;-68
2022/02/15 10:05:58;;;;;;;;;2.00;1.00;;;;;10.29;62.81;101401.06;5080177;27;45428;-69
2022/02/15 10:08:25;;;;;;;;;1.25;0.50;;;;;10.41;62.91;101394.34;5080672;28;45534;-69
2022/02/15 10:10:51;;;;;;;;;0.75;0.75;;;;;10.56;62.63;101384.84;5080739;28;45617;-69
2022/02/15 10:13:16;;;;;;;;;4.50;0.75;;;;;10.67;62.64;101382.56;5080313;28;45988;-69
2022/02/15 10:15:46;;;;;;;;;7.00;2.00;;;;;10.75;62.15;101388.28;5080775;28;45315;-69
2022/02/15 10:18:15;;;;;;;;;1.75;1.50;;;;;10.78;62.11;101388.13;5081006;28;45309;-70
2022/02/15 10:20:45;;;;;;;;;1.75;1.00;;;;;10.80;61.36;101395.94;5072048;27;45475;-69
2022/02/15 10:23:21;;;;;;;;;1.75;0.00;;;;;10.80;61.82;101393.31;5079023;28;45537;-69
2022/02/15 10:25:48;;;;;;;;;3.00;1.00;;;;;10.86;61.83;101404.41;5095718;27;45322;-69
2022/02/15 10:28:35;;;;;;;;;6.50;1.00;;;;;11.03;61.30;101403.56;5104443;27;45261;-69
2022/02/15 10:31:03;;;;;;;;;3.00;1.00;;;;;11.16;61.11;101412.56;5102812;27;45376;-69
2022/02/15 10:33:35;;;;;;;;;6.75;2.75;;;;;11.19;60.73;101408.91;5083800;27;46220;-69
2022/02/15 10:36:01;;;;;;;;;1.00;0.00;;;;;11.19;60.92;101408.91;5084041;27;45259;-69
2022/02/15 10:38:29;;;;;;;;;1.00;1.00;;;;;11.14;60.77;101414.44;5083950;27;45348;-69
2022/02/15 10:41:07;;;;;;;;;2.25;1.00;;;;;11.05;60.71;101400.84;5070725;27;45374;-70
2022/02/15 10:43:49;;;;;;;;;4.25;1.00;;;;;10.94;60.84;101396.13;5074554;28;47838;-69
2022/02/15 10:46:22;;;;;;;;;1.25;1.00;;;;;10.88;61.19;101388.50;5083569;27;45366;-68
2022/02/15 10:48:48;;;;;;;;;2.00;0.00;;;;;10.89;61.30;101377.03;5083797;27;45358;-69
2022/02/15 10:51:15;;;;;;;;;1.00;0.00;;;;;10.95;61.19;101371.47;5083883;28;45308;-69
2022/02/15 10:53:42;;;;;;;;;0.50;0.50;;;;;11.01;61.17;101370.31;5083211;28;46476;-69
2022/02/15 10:56:08;;;;;;;;;5.50;2.00;;;;;11.09;61.43;101362.88;5083858;28;45351;-69
2022/02/15 10:58:34;;;;;;;;;2.25;1.00;;;;;11.12;61.53;101368.81;5083547;28;45346;-69
2022/02/15 11:01:03;;;;;;;;;3.50;1.00;;;;;11.15;61.07;101367.81;5083430;28;45259;-69
2022/02/15 11:03:32;;;;;;;;;2.00;0.00;;;;;11.17;61.04;101373.88;5083310;28;46282;-69
2022/02/15 11:05:58;;;;;;;;;2.75;2.50;;;;;11.24;61.19;101377.03;5083819;28;45426;-69
2022/02/15 11:08:25;;;;;;;;;0.50;0.00;;;;;11.29;60.83;101357.38;5083139;27;45548;-69
2022/02/15 11:11:03;;;;;;;;;1.00;1.00;;;;;11.36;60.79;101355.28;5083105;27;45302;-69
2022/02/15 11:13:29;;;;;;;;;2.75;0.25;;;;;11.38;60.38;101353.44;5082912;27;45319;-69
2022/02/15 11:15:56;;;;;;;;;1.00;0.00;;;;;11.42;60.73;101337.34;5065266;28;45571;-69
2022/02/15 11:18:30;;;;;;;;;2.50;1.00;;;;;11.48;60.72;101343.25;5083110;28;45289;-69
2022/02/15 11:20:56;;;;;;;;;1.00;1.00;;;;;11.44;60.08;101348.66;5083329;27;45316;-70
2022/02/15 11:23:24;;;;;;;;;2.75;1.50;;;;;11.42;60.35;101347.91;5082393;27;45449;-71
2022/02/15 11:26:11;;;;;;;;;8.00;1.50;;;;;11.41;60.27;101345.34;5083197;28;45339;-70
2022/02/15 11:28:53;;;;;;;;;1.00;1.00;;;;;11.44;60.36;101347.81;5091683;27;45445;-70
2022/02/15 11:31:31;;;;;;;;;4.00;1.00;;;;;11.51;59.98;101346.56;5096314;27;45434;-70
2022/02/15 11:34:00;;;;;;;;;1.75;0.50;;;;;11.65;59.95;101349.31;5083202;27;45843;-70
2022/02/15 11:36:25;;;;;;;;;0.00;0.00;;;;;11.71;60.00;101350.78;5082936;27;45374;-70